sensor_id;sensor_type;location;lat;lon;timestamp;P1;P2;P0
65556;PMS3003;52200;53.490;14.376;2022-07-22T00:00:06;27.25;24.25;15.50
65556;PMS3003;52200;53.490;14.376;2022-07-22T00:02:34;26.40;20.60;13.40
65556;PMS3003;52200;53.490;14.376;2022-07-22T00:04:59;26.00;21.75;13.00
65556;PMS3003;52200;53.490;14.376;2022-07-22T00:07:25;26.20;21.60;13.80
65556;PMS3003;52200;53.490;14.376;2022-07-22T00:09:51;26.50;21.25;14.00
65556;PMS3003;52200;53.490;14.376;2022-07-22T00:12:16;26.00;21.75;13.25
65556;PMS3003;52200;53.490;14.376;2022-07-22T00:14:43;25.75;22.25;14.50
65556;PMS3003;52200;53.490;14.376;2022-07-22T00:17:09;26.40;22.40;14.60
65556;PMS3003;52200;53.490;14.376;2022-07-22T00:19:35;29.60;21.00;13.20
65556;PMS3003;52200;53.490;14.376;2022-07-22T00:22:00;24.75;20.75;13.25
65556;PMS3003;52200;53.490;14.376;2022-07-22T00:24:26;29.50;24.50;15.00
65556;PMS3003;52200;53.490;14.376;2022-07-22T00:26:52;27.50;23.75;15.00
65556;PMS3003;52200;53.490;14.376;2022-07-22T00:29:17;24.25;21.25;13.00
65556;PMS3003;52200;53.490;14.376;2022-07-22T00:31:43;27.50;23.25;14.75
65556;PMS3003;52200;53.490;14.376;2022-07-22T00:34:08;30.25;25.00;15.75
65556;PMS3003;52200;53.490;14.376;2022-07-22T00:36:34;32.00;26.25;16.00
65556;PMS3003;52200;53.490;14.376;2022-07-22T00:38:59;26.50;20.50;15.00
65556;PMS3003;52200;53.490;14.376;2022-07-22T00:41:25;25.50;22.00;15.25
65556;PMS3003;52200;53.490;14.376;2022-07-22T00:43:55;28.00;22.00;14.20
65556;PMS3003;52200;53.490;14.376;2022-07-22T00:46:25;27.80;24.40;13.20
65556;PMS3003;52200;53.490;14.376;2022-07-22T00:48:52;28.40;24.00;15.00
65556;PMS3003;52200;53.490;14.376;2022-07-22T00:51:18;28.40;22.80;14.00
65556;PMS3003;52200;53.490;14.376;2022-07-22T00:53:46;25.40;22.20;14.00
65556;PMS3003;52200;53.490;14.376;2022-07-22T00:56:11;24.80;21.80;14.40
65556;PMS3003;52200;53.490;14.376;2022-07-22T00:58:37;23.50;19.25;13.00
65556;PMS3003;52200;53.490;14.376;2022-07-22T01:01:03;27.40;23.60;14.60
65556;PMS3003;52200;53.490;14.376;2022-07-22T01:03:29;26.00;21.60;13.40
65556;PMS3003;52200;53.490;14.376;2022-07-22T01:05:55;28.40;22.80;14.00
65556;PMS3003;52200;53.490;14.376;2022-07-22T01:08:20;27.50;22.50;14.00
65556;PMS3003;52200;53.490;14.376;2022-07-22T01:10:46;24.75;21.75;13.50
65556;PMS3003;52200;53.490;14.376;2022-07-22T01:13:11;28.00;24.00;15.00
65556;PMS3003;52200;53.490;14.376;2022-07-22T01:15:37;27.50;22.75;14.50
65556;PMS3003;52200;53.490;14.376;2022-07-22T01:18:02;28.50;25.00;14.75
65556;PMS3003;52200;53.490;14.376;2022-07-22T01:20:29;29.80;25.40;15.40
65556;PMS3003;52200;53.490;14.376;2022-07-22T01:22:54;27.00;22.75;13.00
65556;PMS3003;52200;53.490;14.376;2022-07-22T01:25:20;26.00;21.00;13.00
65556;PMS3003;52200;53.490;14.376;2022-07-22T01:27:45;25.50;20.75;14.00
65556;PMS3003;52200;53.490;14.376;2022-07-22T01:30:11;26.00;22.25;13.25
65556;PMS3003;52200;53.490;14.376;2022-07-22T01:32:37;26.20;21.00;15.00
65556;PMS3003;52200;53.490;14.376;2022-07-22T01:35:03;24.75;21.50;14.25
65556;PMS3003;52200;53.490;14.376;2022-07-22T01:37:29;25.60;20.40;14.00
65556;PMS3003;52200;53.490;14.376;2022-07-22T01:39:54;25.50;21.25;15.00
65556;PMS3003;52200;53.490;14.376;2022-07-22T01:42:20;27.50;22.00;15.00
65556;PMS3003;52200;53.490;14.376;2022-07-22T01:44:45;27.00;22.00;14.75
65556;PMS3003;52200;53.490;14.376;2022-07-22T01:47:11;28.00;24.50;14.00
65556;PMS3003;52200;53.490;14.376;2022-07-22T01:49:36;28.50;24.00;15.25
65556;PMS3003;52200;53.490;14.376;2022-07-22T01:52:03;26.75;22.50;14.00
65556;PMS3003;52200;53.490;14.376;2022-07-22T01:54:29;29.20;23.00;15.00
65556;PMS3003;52200;53.490;14.376;2022-07-22T01:56:54;31.75;24.50;14.00
65556;PMS3003;52200;53.490;14.376;2022-07-22T01:59:20;28.75;25.00;14.25
65556;PMS3003;52200;53.490;14.376;2022-07-22T02:01:46;24.75;20.25;13.00
65556;PMS3003;52200;53.490;14.376;2022-07-22T02:04:11;27.75;23.75;15.00
65556;PMS3003;52200;53.490;14.376;2022-07-22T02:06:37;27.25;23.25;15.50
65556;PMS3003;52200;53.490;14.376;2022-07-22T02:09:03;29.25;24.50;15.00
65556;PMS3003;52200;53.490;14.376;2022-07-22T02:11:30;26.40;23.60;14.60
65556;PMS3003;52200;53.490;14.376;2022-07-22T02:13:56;25.25;20.50;14.25
65556;PMS3003;52200;53.490;14.376;2022-07-22T02:16:21;26.40;22.60;13.80
65556;PMS3003;52200;53.490;14.376;2022-07-22T02:18:47;28.50;24.00;15.25
65556;PMS3003;52200;53.490;14.376;2022-07-22T02:21:13;30.00;25.50;14.00
65556;PMS3003;52200;53.490;14.376;2022-07-22T02:23:38;28.60;22.80;14.00
65556;PMS3003;52200;53.490;14.376;2022-07-22T02:26:04;29.75;25.25;15.75
65556;PMS3003;52200;53.490;14.376;2022-07-22T02:28:29;29.00;25.00;16.00
65556;PMS3003;52200;53.490;14.376;2022-07-22T02:30:55;25.75;21.25;14.25
65556;PMS3003;52200;53.490;14.376;2022-07-22T02:33:21;23.00;19.25;12.00
65556;PMS3003;52200;53.490;14.376;2022-07-22T02:35:46;25.50;21.00;12.50
65556;PMS3003;52200;53.490;14.376;2022-07-22T02:38:12;28.50;22.25;13.75
65556;PMS3003;52200;53.490;14.376;2022-07-22T02:40:37;24.00;19.00;13.00
65556;PMS3003;52200;53.490;14.376;2022-07-22T02:43:03;25.75;20.00;13.00
65556;PMS3003;52200;53.490;14.376;2022-07-22T02:45:31;27.00;23.60;14.60
65556;PMS3003;52200;53.490;14.376;2022-07-22T02:47:57;25.60;21.20;14.40
65556;PMS3003;52200;53.490;14.376;2022-07-22T02:50:23;23.75;19.50;14.25
65556;PMS3003;52200;53.490;14.376;2022-07-22T02:52:49;24.20;19.40;12.40
65556;PMS3003;52200;53.490;14.376;2022-07-22T02:55:15;25.00;21.00;14.60
65556;PMS3003;52200;53.490;14.376;2022-07-22T02:57:41;25.00;20.75;13.25
65556;PMS3003;52200;53.490;14.376;2022-07-22T03:00:07;24.00;21.00;13.60
65556;PMS3003;52200;53.490;14.376;2022-07-22T03:02:34;24.00;19.00;12.60
65556;PMS3003;52200;53.490;14.376;2022-07-22T03:05:00;20.75;16.00;11.25
65556;PMS3003;52200;53.490;14.376;2022-07-22T03:07:26;22.60;18.00;11.80
65556;PMS3003;52200;53.490;14.376;2022-07-22T03:09:51;23.50;20.25;12.00
65556;PMS3003;52200;53.490;14.376;2022-07-22T03:12:17;20.75;17.00;10.75
65556;PMS3003;52200;53.490;14.376;2022-07-22T03:14:42;21.75;18.00;11.00
65556;PMS3003;52200;53.490;14.376;2022-07-22T03:17:08;25.00;20.75;12.00
65556;PMS3003;52200;53.490;14.376;2022-07-22T03:19:33;23.25;18.75;13.00
65556;PMS3003;52200;53.490;14.376;2022-07-22T03:21:59;21.50;18.00;11.50
65556;PMS3003;52200;53.490;14.376;2022-07-22T03:24:24;20.25;16.25;11.00
65556;PMS3003;52200;53.490;14.376;2022-07-22T03:26:50;26.25;20.75;14.00
65556;PMS3003;52200;53.490;14.376;2022-07-22T03:29:15;21.75;17.25;11.75
65556;PMS3003;52200;53.490;14.376;2022-07-22T03:31:41;26.75;22.75;14.00
65556;PMS3003;52200;53.490;14.376;2022-07-22T03:34:06;24.00;19.00;13.50
65556;PMS3003;52200;53.490;14.376;2022-07-22T03:36:32;26.50;21.00;14.00
65556;PMS3003;52200;53.490;14.376;2022-07-22T03:38:57;26.25;21.00;14.75
65556;PMS3003;52200;53.490;14.376;2022-07-22T03:41:22;23.50;18.75;12.75
65556;PMS3003;52200;53.490;14.376;2022-07-22T03:43:48;22.75;17.75;11.00
65556;PMS3003;52200;53.490;14.376;2022-07-22T03:46:14;24.75;18.75;12.50
65556;PMS3003;52200;53.490;14.376;2022-07-22T03:48:39;22.00;18.00;12.75
65556;PMS3003;52200;53.490;14.376;2022-07-22T03:51:05;24.00;19.75;12.25
65556;PMS3003;52200;53.490;14.376;2022-07-22T03:53:31;23.00;17.60;12.60
65556;PMS3003;52200;53.490;14.376;2022-07-22T03:55:58;19.20;16.20;12.00
65556;PMS3003;52200;53.490;14.376;2022-07-22T03:58:24;23.00;19.00;12.40
65556;PMS3003;52200;53.490;14.376;2022-07-22T04:00:52;21.80;18.00;12.00
65556;PMS3003;52200;53.490;14.376;2022-07-22T04:03:18;24.80;17.80;10.00
65556;PMS3003;52200;53.490;14.376;2022-07-22T04:05:44;25.75;20.25;12.00
65556;PMS3003;52200;53.490;14.376;2022-07-22T04:08:11;20.80;16.80;12.40
65556;PMS3003;52200;53.490;14.376;2022-07-22T04:10:37;19.20;16.00;11.60
65556;PMS3003;52200;53.490;14.376;2022-07-22T04:13:03;19.25;15.75;10.25
65556;PMS3003;52200;53.490;14.376;2022-07-22T04:15:28;21.50;16.75;9.75
65556;PMS3003;52200;53.490;14.376;2022-07-22T04:17:54;21.50;16.75;10.25
65556;PMS3003;52200;53.490;14.376;2022-07-22T04:20:19;19.25;16.75;9.00
65556;PMS3003;52200;53.490;14.376;2022-07-22T04:22:45;20.25;16.50;11.00
65556;PMS3003;52200;53.490;14.376;2022-07-22T04:25:10;20.25;16.50;10.00
65556;PMS3003;52200;53.490;14.376;2022-07-22T04:27:36;20.25;17.25;10.75
65556;PMS3003;52200;53.490;14.376;2022-07-22T04:30:02;23.75;18.75;11.00
65556;PMS3003;52200;53.490;14.376;2022-07-22T04:32:28;22.60;16.80;10.40
65556;PMS3003;52200;53.490;14.376;2022-07-22T04:34:53;18.50;15.50;10.50
65556;PMS3003;52200;53.490;14.376;2022-07-22T04:37:19;17.75;14.50;10.00
65556;PMS3003;52200;53.490;14.376;2022-07-22T04:39:44;18.00;15.25;11.00
65556;PMS3003;52200;53.490;14.376;2022-07-22T04:42:10;22.25;16.00;9.75
65556;PMS3003;52200;53.490;14.376;2022-07-22T04:44:35;19.00;15.25;10.25
65556;PMS3003;52200;53.490;14.376;2022-07-22T04:47:01;19.25;16.50;10.50
65556;PMS3003;52200;53.490;14.376;2022-07-22T04:49:26;21.25;16.00;10.00
65556;PMS3003;52200;53.490;14.376;2022-07-22T04:51:52;19.50;16.25;10.25
65556;PMS3003;52200;53.490;14.376;2022-07-22T04:54:17;23.50;17.50;9.00
65556;PMS3003;52200;53.490;14.376;2022-07-22T04:56:43;19.00;15.75;9.25
65556;PMS3003;52200;53.490;14.376;2022-07-22T04:59:08;22.25;17.00;11.00
65556;PMS3003;52200;53.490;14.376;2022-07-22T05:01:34;20.75;16.00;10.25
65556;PMS3003;52200;53.490;14.376;2022-07-22T05:03:59;23.00;19.00;12.50
65556;PMS3003;52200;53.490;14.376;2022-07-22T05:06:25;24.50;19.75;11.00
65556;PMS3003;52200;53.490;14.376;2022-07-22T05:08:50;19.75;17.75;11.00
65556;PMS3003;52200;53.490;14.376;2022-07-22T05:11:16;18.00;16.25;10.25
65556;PMS3003;52200;53.490;14.376;2022-07-22T05:13:41;21.25;18.75;11.00
65556;PMS3003;52200;53.490;14.376;2022-07-22T05:16:07;19.00;18.50;11.00
65556;PMS3003;52200;53.490;14.376;2022-07-22T05:18:33;19.40;17.60;11.80
65556;PMS3003;52200;53.490;14.376;2022-07-22T05:20:59;19.20;17.80;10.80
65556;PMS3003;52200;53.490;14.376;2022-07-22T05:23:25;21.40;19.00;11.40
65556;PMS3003;52200;53.490;14.376;2022-07-22T05:25:51;21.25;18.00;11.75
65556;PMS3003;52200;53.490;14.376;2022-07-22T05:28:16;21.75;20.50;12.00
65556;PMS3003;52200;53.490;14.376;2022-07-22T05:30:42;19.75;16.75;10.75
65556;PMS3003;52200;53.490;14.376;2022-07-22T05:33:07;24.25;19.75;11.00
65556;PMS3003;52200;53.490;14.376;2022-07-22T05:35:33;22.00;17.75;12.75
65556;PMS3003;52200;53.490;14.376;2022-07-22T05:37:58;21.00;18.25;12.00
65556;PMS3003;52200;53.490;14.376;2022-07-22T05:40:24;19.00;16.25;11.50
65556;PMS3003;52200;53.490;14.376;2022-07-22T05:42:49;25.50;22.25;12.50
65556;PMS3003;52200;53.490;14.376;2022-07-22T05:45:15;20.50;20.00;11.75
65556;PMS3003;52200;53.490;14.376;2022-07-22T05:47:40;21.00;18.75;11.00
65556;PMS3003;52200;53.490;14.376;2022-07-22T05:50:06;23.25;19.25;12.00
65556;PMS3003;52200;53.490;14.376;2022-07-22T05:52:32;20.60;18.80;11.00
65556;PMS3003;52200;53.490;14.376;2022-07-22T05:55:00;21.20;21.20;11.00
65556;PMS3003;52200;53.490;14.376;2022-07-22T05:57:25;21.50;20.25;11.75
65556;PMS3003;52200;53.490;14.376;2022-07-22T05:59:51;22.00;21.75;12.75
65556;PMS3003;52200;53.490;14.376;2022-07-22T06:02:16;25.75;23.25;12.75
65556;PMS3003;52200;53.490;14.376;2022-07-22T06:04:42;18.75;18.25;12.00
65556;PMS3003;52200;53.490;14.376;2022-07-22T06:07:07;21.25;20.25;11.00
65556;PMS3003;52200;53.490;14.376;2022-07-22T06:09:33;20.00;19.00;11.00
65556;PMS3003;52200;53.490;14.376;2022-07-22T06:11:59;19.00;19.00;11.00
65556;PMS3003;52200;53.490;14.376;2022-07-22T06:14:24;18.50;17.50;10.00
65556;PMS3003;52200;53.490;14.376;2022-07-22T06:16:50;18.75;18.25;10.00
65556;PMS3003;52200;53.490;14.376;2022-07-22T06:19:15;19.25;19.25;11.50
65556;PMS3003;52200;53.490;14.376;2022-07-22T06:21:41;19.75;18.75;11.00
65556;PMS3003;52200;53.490;14.376;2022-07-22T06:24:06;21.50;20.75;10.75
65556;PMS3003;52200;53.490;14.376;2022-07-22T06:26:32;19.75;18.75;10.00
65556;PMS3003;52200;53.490;14.376;2022-07-22T06:28:57;20.75;19.00;12.00
65556;PMS3003;52200;53.490;14.376;2022-07-22T06:31:23;19.00;19.00;11.00
65556;PMS3003;52200;53.490;14.376;2022-07-22T06:33:48;19.00;19.00;11.00
65556;PMS3003;52200;53.490;14.376;2022-07-22T06:36:14;18.50;18.50;10.00
65556;PMS3003;52200;53.490;14.376;2022-07-22T06:38:40;22.40;20.00;11.40
65556;PMS3003;52200;53.490;14.376;2022-07-22T06:41:05;20.00;19.50;10.50
65556;PMS3003;52200;53.490;14.376;2022-07-22T06:43:31;23.50;21.50;11.50
65556;PMS3003;52200;53.490;14.376;2022-07-22T06:45:56;19.00;19.00;10.25
65556;PMS3003;52200;53.490;14.376;2022-07-22T06:48:22;20.00;19.00;10.00
65556;PMS3003;52200;53.490;14.376;2022-07-22T06:50:47;17.50;17.50;10.00
65556;PMS3003;52200;53.490;14.376;2022-07-22T06:53:13;15.75;15.25;9.25
65556;PMS3003;52200;53.490;14.376;2022-07-22T06:55:38;19.50;18.75;9.00
65556;PMS3003;52200;53.490;14.376;2022-07-22T06:58:04;26.50;21.25;11.50
65556;PMS3003;52200;53.490;14.376;2022-07-22T07:00:29;18.25;17.25;10.00
65556;PMS3003;52200;53.490;14.376;2022-07-22T07:02:57;16.75;16.75;10.00
65556;PMS3003;52200;53.490;14.376;2022-07-22T07:05:24;19.80;19.80;10.80
65556;PMS3003;52200;53.490;14.376;2022-07-22T07:07:50;17.25;16.50;8.75
65556;PMS3003;52200;53.490;14.376;2022-07-22T07:10:15;23.25;21.00;11.75
65556;PMS3003;52200;53.490;14.376;2022-07-22T07:12:41;19.75;19.25;10.00
65556;PMS3003;52200;53.490;14.376;2022-07-22T07:15:07;18.80;18.60;10.40
65556;PMS3003;52200;53.490;14.376;2022-07-22T07:17:33;17.80;17.00;9.60
65556;PMS3003;52200;53.490;14.376;2022-07-22T07:19:58;19.75;18.25;10.00
65556;PMS3003;52200;53.490;14.376;2022-07-22T07:22:24;20.00;19.00;10.00
65556;PMS3003;52200;53.490;14.376;2022-07-22T07:24:49;16.25;15.25;8.00
65556;PMS3003;52200;53.490;14.376;2022-07-22T07:27:15;16.25;16.25;9.75
65556;PMS3003;52200;53.490;14.376;2022-07-22T07:29:40;15.50;15.00;8.00
65556;PMS3003;52200;53.490;14.376;2022-07-22T07:32:06;16.00;15.00;8.75
65556;PMS3003;52200;53.490;14.376;2022-07-22T07:34:31;17.00;15.25;9.25
65556;PMS3003;52200;53.490;14.376;2022-07-22T07:36:57;15.50;15.50;9.75
65556;PMS3003;52200;53.490;14.376;2022-07-22T07:39:23;15.00;15.00;9.25
65556;PMS3003;52200;53.490;14.376;2022-07-22T07:41:49;18.00;16.00;8.20
65556;PMS3003;52200;53.490;14.376;2022-07-22T07:44:16;17.40;16.80;8.00
65556;PMS3003;52200;53.490;14.376;2022-07-22T07:46:41;17.00;16.20;8.60
65556;PMS3003;52200;53.490;14.376;2022-07-22T07:49:07;16.00;15.75;8.25
65556;PMS3003;52200;53.490;14.376;2022-07-22T07:51:32;14.00;14.00;7.00
65556;PMS3003;52200;53.490;14.376;2022-07-22T07:53:58;18.50;17.25;8.00
65556;PMS3003;52200;53.490;14.376;2022-07-22T07:56:23;15.75;15.00;8.00
65556;PMS3003;52200;53.490;14.376;2022-07-22T07:58:49;15.00;14.50;8.50
65556;PMS3003;52200;53.490;14.376;2022-07-22T08:01:14;14.50;13.50;7.00
65556;PMS3003;52200;53.490;14.376;2022-07-22T08:03:40;13.50;13.25;8.00
65556;PMS3003;52200;53.490;14.376;2022-07-22T08:06:05;13.50;13.50;7.00
65556;PMS3003;52200;53.490;14.376;2022-07-22T08:08:31;13.25;13.25;7.00
65556;PMS3003;52200;53.490;14.376;2022-07-22T08:10:57;16.20;15.00;8.00
65556;PMS3003;52200;53.490;14.376;2022-07-22T08:13:22;12.50;12.25;7.50
65556;PMS3003;52200;53.490;14.376;2022-07-22T08:15:48;11.50;11.50;7.00
65556;PMS3003;52200;53.490;14.376;2022-07-22T08:18:14;13.40;12.60;6.00
65556;PMS3003;52200;53.490;14.376;2022-07-22T08:20:39;13.50;13.50;6.75
65556;PMS3003;52200;53.490;14.376;2022-07-22T08:23:05;15.00;15.00;8.25
65556;PMS3003;52200;53.490;14.376;2022-07-22T08:25:31;13.25;13.00;6.25
65556;PMS3003;52200;53.490;14.376;2022-07-22T08:27:57;14.00;14.00;7.50
65556;PMS3003;52200;53.490;14.376;2022-07-22T08:30:23;12.60;12.60;6.60
65556;PMS3003;52200;53.490;14.376;2022-07-22T08:32:52;13.60;13.60;7.20
65556;PMS3003;52200;53.490;14.376;2022-07-22T08:35:17;14.00;13.75;7.00
65556;PMS3003;52200;53.490;14.376;2022-07-22T08:37:43;13.00;12.40;6.20
65556;PMS3003;52200;53.490;14.376;2022-07-22T08:40:11;11.40;11.40;6.00
65556;PMS3003;52200;53.490;14.376;2022-07-22T08:42:39;13.00;12.75;6.00
65556;PMS3003;52200;53.490;14.376;2022-07-22T08:45:06;13.00;12.00;7.00
65556;PMS3003;52200;53.490;14.376;2022-07-22T08:47:32;11.80;11.80;6.80
65556;PMS3003;52200;53.490;14.376;2022-07-22T08:49:58;17.20;15.00;7.00
65556;PMS3003;52200;53.490;14.376;2022-07-22T08:52:24;13.00;13.00;6.40
65556;PMS3003;52200;53.490;14.376;2022-07-22T08:54:50;15.50;14.75;8.00
65556;PMS3003;52200;53.490;14.376;2022-07-22T08:57:16;15.75;14.50;8.50
65556;PMS3003;52200;53.490;14.376;2022-07-22T08:59:49;14.20;14.20;7.00
65556;PMS3003;52200;53.490;14.376;2022-07-22T09:02:16;16.20;15.80;7.20
65556;PMS3003;52200;53.490;14.376;2022-07-22T09:05:05;14.40;14.00;8.00
65556;PMS3003;52200;53.490;14.376;2022-07-22T09:07:32;17.20;15.80;7.80
65556;PMS3003;52200;53.490;14.376;2022-07-22T09:10:01;16.80;15.40;8.60
65556;PMS3003;52200;53.490;14.376;2022-07-22T09:12:29;17.00;16.00;8.00
65556;PMS3003;52200;53.490;14.376;2022-07-22T09:14:57;15.00;14.60;8.00
65556;PMS3003;52200;53.490;14.376;2022-07-22T09:19:52;15.00;14.20;7.40
65556;PMS3003;52200;53.490;14.376;2022-07-22T09:22:35;17.20;15.80;8.80
65556;PMS3003;52200;53.490;14.376;2022-07-22T09:25:18;16.00;16.00;7.80
65556;PMS3003;52200;53.490;14.376;2022-07-22T09:27:51;14.40;14.40;7.60
65556;PMS3003;52200;53.490;14.376;2022-07-22T09:30:23;13.80;13.60;6.60
65556;PMS3003;52200;53.490;14.376;2022-07-22T09:32:51;19.20;15.40;7.80
65556;PMS3003;52200;53.490;14.376;2022-07-22T09:35:19;14.40;14.00;7.80
65556;PMS3003;52200;53.490;14.376;2022-07-22T09:40:16;21.40;18.20;8.60
65556;PMS3003;52200;53.490;14.376;2022-07-22T09:42:51;14.00;14.00;8.40
65556;PMS3003;52200;53.490;14.376;2022-07-22T09:45:18;14.40;14.40;8.20
65556;PMS3003;52200;53.490;14.376;2022-07-22T09:47:45;14.20;13.40;8.00
65556;PMS3003;52200;53.490;14.376;2022-07-22T09:50:23;14.40;13.60;7.60
65556;PMS3003;52200;53.490;14.376;2022-07-22T09:52:55;12.60;12.60;7.00
65556;PMS3003;52200;53.490;14.376;2022-07-22T09:55:22;14.60;14.20;8.00
65556;PMS3003;52200;53.490;14.376;2022-07-22T09:57:49;14.40;14.20;7.20
65556;PMS3003;52200;53.490;14.376;2022-07-22T10:00:18;14.20;13.80;7.40
65556;PMS3003;52200;53.490;14.376;2022-07-22T10:05:25;12.00;12.00;7.00
65556;PMS3003;52200;53.490;14.376;2022-07-22T10:07:52;12.40;12.40;6.60
65556;PMS3003;52200;53.490;14.376;2022-07-22T10:10:21;10.60;10.60;4.00
65556;PMS3003;52200;53.490;14.376;2022-07-22T10:12:49;9.20;8.20;3.00
65556;PMS3003;52200;53.490;14.376;2022-07-22T10:15:16;7.20;7.00;2.80
65556;PMS3003;52200;53.490;14.376;2022-07-22T10:17:45;10.80;10.40;5.00
65556;PMS3003;52200;53.490;14.376;2022-07-22T10:20:20;9.80;9.80;4.40
65556;PMS3003;52200;53.490;14.376;2022-07-22T10:22:48;7.80;7.80;4.00
65556;PMS3003;52200;53.490;14.376;2022-07-22T10:25:16;9.60;9.60;4.80
65556;PMS3003;52200;53.490;14.376;2022-07-22T10:27:44;9.60;9.60;4.00
65556;PMS3003;52200;53.490;14.376;2022-07-22T10:30:28;10.00;9.80;4.80
65556;PMS3003;52200;53.490;14.376;2022-07-22T10:35:52;10.20;10.20;4.60
65556;PMS3003;52200;53.490;14.376;2022-07-22T10:38:23;9.60;9.20;4.00
65556;PMS3003;52200;53.490;14.376;2022-07-22T10:40:54;9.60;9.40;5.00
65556;PMS3003;52200;53.490;14.376;2022-07-22T10:43:28;11.40;11.40;5.00
65556;PMS3003;52200;53.490;14.376;2022-07-22T10:46:13;10.00;10.00;4.40
65556;PMS3003;52200;53.490;14.376;2022-07-22T10:59:53;12.40;11.40;4.80
65556;PMS3003;52200;53.490;14.376;2022-07-22T11:02:19;11.00;10.60;5.00
65556;PMS3003;52200;53.490;14.376;2022-07-22T11:04:46;8.00;8.00;4.00
65556;PMS3003;52200;53.490;14.376;2022-07-22T11:07:12;10.80;10.80;4.60
65556;PMS3003;52200;53.490;14.376;2022-07-22T11:09:37;8.50;8.50;4.00
65556;PMS3003;52200;53.490;14.376;2022-07-22T11:12:03;10.50;9.50;4.75
65556;PMS3003;52200;53.490;14.376;2022-07-22T11:14:37;10.20;9.80;4.00
65556;PMS3003;52200;53.490;14.376;2022-07-22T11:17:06;10.25;10.00;4.00
65556;PMS3003;52200;53.490;14.376;2022-07-22T11:19:34;10.00;10.00;4.00
65556;PMS3003;52200;53.490;14.376;2022-07-22T11:22:04;8.40;8.40;3.80
65556;PMS3003;52200;53.490;14.376;2022-07-22T11:24:35;8.40;8.40;3.40
65556;PMS3003;52200;53.490;14.376;2022-07-22T11:27:01;8.00;7.80;3.00
65556;PMS3003;52200;53.490;14.376;2022-07-22T11:29:29;7.40;7.00;3.00
65556;PMS3003;52200;53.490;14.376;2022-07-22T11:31:59;11.20;9.40;3.00
65556;PMS3003;52200;53.490;14.376;2022-07-22T11:34:26;7.40;6.80;2.00
65556;PMS3003;52200;53.490;14.376;2022-07-22T11:36:52;6.20;6.20;2.00
65556;PMS3003;52200;53.490;14.376;2022-07-22T11:39:23;8.00;7.60;2.20
65556;PMS3003;52200;53.490;14.376;2022-07-22T11:41:50;11.40;9.60;2.60
65556;PMS3003;52200;53.490;14.376;2022-07-22T11:44:21;6.80;6.80;1.80
65556;PMS3003;52200;53.490;14.376;2022-07-22T11:46:48;7.60;7.20;2.80
65556;PMS3003;52200;53.490;14.376;2022-07-22T11:49:16;8.20;7.60;2.60
65556;PMS3003;52200;53.490;14.376;2022-07-22T11:51:43;6.00;6.00;2.00
65556;PMS3003;52200;53.490;14.376;2022-07-22T11:54:09;6.40;6.00;2.00
65556;PMS3003;52200;53.490;14.376;2022-07-22T11:56:35;6.60;6.60;2.00
65556;PMS3003;52200;53.490;14.376;2022-07-22T11:59:02;5.60;5.40;1.00
65556;PMS3003;52200;53.490;14.376;2022-07-22T12:01:33;5.20;5.20;1.00
65556;PMS3003;52200;53.490;14.376;2022-07-22T12:04:03;7.60;5.40;1.20
65556;PMS3003;52200;53.490;14.376;2022-07-22T12:06:32;6.40;5.60;1.00
65556;PMS3003;52200;53.490;14.376;2022-07-22T12:09:07;5.40;5.40;1.80
65556;PMS3003;52200;53.490;14.376;2022-07-22T12:11:41;5.20;5.00;0.20
65556;PMS3003;52200;53.490;14.376;2022-07-22T12:14:16;4.40;4.40;1.40
65556;PMS3003;52200;53.490;14.376;2022-07-22T12:17:20;6.00;6.00;1.00
65556;PMS3003;52200;53.490;14.376;2022-07-22T12:19:40;5.60;5.20;1.00
65556;PMS3003;52200;53.490;14.376;2022-07-22T12:22:10;5.00;5.00;1.00
65556;PMS3003;52200;53.490;14.376;2022-07-22T12:24:56;6.40;5.80;1.20
65556;PMS3003;52200;53.490;14.376;2022-07-22T12:27:24;5.80;5.60;1.20
65556;PMS3003;52200;53.490;14.376;2022-07-22T12:29:49;7.00;6.00;2.00
65556;PMS3003;52200;53.490;14.376;2022-07-22T12:34:56;4.40;4.00;2.00
65556;PMS3003;52200;53.490;14.376;2022-07-22T12:37:25;5.00;5.00;1.00
65556;PMS3003;52200;53.490;14.376;2022-07-22T12:42:37;5.00;5.00;1.00
65556;PMS3003;52200;53.490;14.376;2022-07-22T12:47:45;7.20;5.60;1.40
65556;PMS3003;52200;53.490;14.376;2022-07-22T12:50:18;5.00;5.00;1.00
65556;PMS3003;52200;53.490;14.376;2022-07-22T12:52:44;5.00;5.00;1.00
65556;PMS3003;52200;53.490;14.376;2022-07-22T12:55:09;11.75;9.00;1.00
65556;PMS3003;52200;53.490;14.376;2022-07-22T12:57:34;5.00;4.00;1.00
65556;PMS3003;52200;53.490;14.376;2022-07-22T13:00:00;6.00;5.50;1.00
65556;PMS3003;52200;53.490;14.376;2022-07-22T13:02:25;4.50;4.00;1.00
65556;PMS3003;52200;53.490;14.376;2022-07-22T13:04:51;4.75;4.75;1.25
65556;PMS3003;52200;53.490;14.376;2022-07-22T13:07:16;4.25;4.25;0.00
65556;PMS3003;52200;53.490;14.376;2022-07-22T13:09:42;5.00;5.00;1.00
65556;PMS3003;52200;53.490;14.376;2022-07-22T13:12:07;4.25;4.00;0.00
65556;PMS3003;52200;53.490;14.376;2022-07-22T13:14:33;5.50;5.50;1.00
65556;PMS3003;52200;53.490;14.376;2022-07-22T13:16:58;6.25;5.25;0.25
65556;PMS3003;52200;53.490;14.376;2022-07-22T13:19:24;7.25;6.50;0.75
65556;PMS3003;52200;53.490;14.376;2022-07-22T13:21:49;7.00;6.00;1.50
65556;PMS3003;52200;53.490;14.376;2022-07-22T13:24:15;4.00;4.00;1.00
65556;PMS3003;52200;53.490;14.376;2022-07-22T13:26:41;4.60;4.60;0.60
65556;PMS3003;52200;53.490;14.376;2022-07-22T13:29:06;6.00;5.25;1.00
65556;PMS3003;52200;53.490;14.376;2022-07-22T13:31:32;6.00;5.75;1.00
65556;PMS3003;52200;53.490;14.376;2022-07-22T13:33:57;8.00;5.00;1.00
65556;PMS3003;52200;53.490;14.376;2022-07-22T13:36:23;6.25;5.75;1.00
65556;PMS3003;52200;53.490;14.376;2022-07-22T13:38:49;5.00;5.00;1.25
65556;PMS3003;52200;53.490;14.376;2022-07-22T13:41:16;6.20;6.00;1.00
65556;PMS3003;52200;53.490;14.376;2022-07-22T13:43:42;5.00;5.00;2.00
65556;PMS3003;52200;53.490;14.376;2022-07-22T13:46:08;10.00;9.00;2.80
65556;PMS3003;52200;53.490;14.376;2022-07-22T13:48:33;5.50;5.50;1.75
65556;PMS3003;52200;53.490;14.376;2022-07-22T13:50:59;8.00;8.00;2.00
65556;PMS3003;52200;53.490;14.376;2022-07-22T13:53:24;7.00;6.50;2.00
65556;PMS3003;52200;53.490;14.376;2022-07-22T13:55:50;7.00;6.50;1.00
65556;PMS3003;52200;53.490;14.376;2022-07-22T13:58:15;6.50;6.00;2.00
65556;PMS3003;52200;53.490;14.376;2022-07-22T14:00:40;6.25;6.00;2.00
65556;PMS3003;52200;53.490;14.376;2022-07-22T14:03:06;6.75;6.00;2.00
65556;PMS3003;52200;53.490;14.376;2022-07-22T14:05:31;7.00;6.75;2.00
65556;PMS3003;52200;53.490;14.376;2022-07-22T14:07:57;8.00;7.00;2.00
65556;PMS3003;52200;53.490;14.376;2022-07-22T14:10:22;8.75;7.50;2.00